Time;durP1;ratioP1;P1;durP2;ratioP2;P2;SDS_P1;SDS_P2;PMS_P1;PMS_P2;Temp;Humidity;BMP_temperature;BMP_pressure;BME280_temperature;BME280_humidity;BME280_pressure;Samples;Min_cycle;Max_cycle;Signal;HPM_P1;HPM_P2
2022/12/05 00:01:19;;;;;;;91.20;44.93;;;;;;;2.76;84.38;100663.86;2014391;87;28690;-66
2022/12/05 00:04:20;;;;;;;94.87;47.83;;;;;;;2.78;84.45;100664.72;2014547;87;31037;-67
2022/12/05 00:07:21;;;;;;;88.60;45.70;;;;;;;2.78;84.38;100662.97;2014121;87;33779;-66
2022/12/05 00:10:22;;;;;;;93.60;47.10;;;;;;;2.81;84.44;100662.05;1983521;87;29000;-66
2022/12/05 00:13:24;;;;;;;92.97;46.80;;;;;;;2.81;84.46;100664.27;1982692;89;27748;-67
2022/12/05 00:16:27;;;;;;;107.03;49.20;;;;;;;2.81;84.39;100658.97;1982367;89;28893;-66
2022/12/05 00:19:29;;;;;;;90.05;43.08;;;;;;;2.83;84.38;100656.29;1982469;89;31015;-66
2022/12/05 00:22:30;;;;;;;93.60;44.05;;;;;;;2.84;84.44;100649.64;1982567;89;32949;-68
2022/12/05 00:25:31;;;;;;;86.28;42.38;;;;;;;2.84;84.41;100653.61;1982590;89;29019;-66
2022/12/05 00:28:34;;;;;;;84.03;41.92;;;;;;;2.85;84.44;100645.25;1982580;89;28288;-67
2022/12/05 00:31:35;;;;;;;87.00;42.13;;;;;;;2.87;84.44;100644.32;1982309;89;28670;-66
2022/12/05 00:34:36;;;;;;;77.42;38.45;;;;;;;2.87;84.45;100643.46;2036967;87;31082;-67
2022/12/05 00:37:38;;;;;;;82.78;42.00;;;;;;;2.87;84.41;100636.38;2036775;86;34033;-66
2022/12/05 00:40:39;;;;;;;91.12;43.63;;;;;;;2.87;84.38;100646.97;2036743;87;29781;-66
2022/12/05 00:43:41;;;;;;;82.12;41.35;;;;;;;2.87;84.38;100646.97;2036911;87;27672;-67
2022/12/05 00:46:42;;;;;;;79.50;38.65;;;;;;;2.86;84.34;100643.03;2036810;87;28704;-64
2022/12/05 00:49:43;;;;;;;82.85;40.50;;;;;;;2.86;84.41;100642.56;2036810;87;31826;-67
2022/12/05 00:52:44;;;;;;;75.35;39.92;;;;;;;2.85;84.32;100640.81;2036676;87;32982;-66
2022/12/05 00:55:45;;;;;;;79.07;38.83;;;;;;;2.84;84.44;100629.80;2036760;87;29787;-66
2022/12/05 00:58:48;;;;;;;83.50;42.83;;;;;;;2.82;84.31;100653.22;2036868;87;27776;-66
2022/12/05 01:01:51;;;;;;;85.30;41.15;;;;;;;2.82;84.38;100654.08;2037249;87;28688;-66
2022/12/05 01:04:52;;;;;;;81.05;39.95;;;;;;;2.85;84.38;100655.83;2036684;87;31093;-67
2022/12/05 01:07:53;;;;;;;75.67;40.52;;;;;;;2.87;84.38;100651.40;2049640;86;32978;-67
2022/12/05 01:10:56;;;;;;;75.37;40.65;;;;;;;2.88;84.35;100655.34;2070239;86;29149;-67
2022/12/05 01:13:57;;;;;;;74.62;38.90;;;;;;;2.91;84.32;100659.70;2070530;85;27688;-67
2022/12/05 01:16:59;;;;;;;78.87;41.30;;;;;;;2.92;84.27;100665.42;2070509;86;28755;-68
2022/12/05 01:20:00;;;;;;;80.90;40.35;;;;;;;2.93;84.21;100661.03;2070544;86;32101;-67
2022/12/05 01:23:01;;;;;;;72.27;38.98;;;;;;;2.93;84.17;100664.53;2070435;86;32944;-68
2022/12/05 01:26:08;;;;;;;78.47;39.83;;;;;;;2.91;84.10;100657.52;2070583;86;29060;-67
2022/12/05 01:29:12;;;;;;;77.25;42.45;;;;;;;2.89;84.11;100658.88;2033095;87;27715;-68
2022/12/05 01:32:13;;;;;;;78.47;40.43;;;;;;;2.87;84.14;100658.02;2033768;87;28684;-67
2022/12/05 01:35:14;;;;;;;75.17;38.80;;;;;;;2.90;84.20;100657.95;2042611;86;31047;-68
2022/12/05 01:38:15;;;;;;;71.60;37.60;;;;;;;2.88;84.11;100651.37;2037417;86;32941;-67
2022/12/05 01:41:21;;;;;;;77.55;39.40;;;;;;;2.91;84.12;100646.47;2042512;86;29062;-68
2022/12/05 01:44:28;;;;;;;70.25;36.77;;;;;;;2.92;84.11;100640.75;2042706;87;27729;-67
2022/12/05 01:47:32;;;;;;;77.25;39.15;;;;;;;2.92;84.03;100644.72;2042497;86;29467;-68
2022/12/05 01:50:34;;;;;;;75.95;38.95;;;;;;;2.91;83.97;100639.00;2042490;86;31028;-66
2022/12/05 01:53:35;;;;;;;77.45;39.92;;;;;;;2.92;83.99;100639.42;2038549;87;33099;-67
2022/12/05 01:56:37;;;;;;;73.92;38.02;;;;;;;2.92;83.93;100641.61;2042490;87;29018;-68
2022/12/05 01:59:49;;;;;;;82.35;38.55;;;;;;;2.93;83.96;100643.83;2042591;87;27729;-67
2022/12/05 02:02:57;;;;;;;76.35;40.17;;;;;;;2.92;83.93;100644.25;2042549;87;28673;-69
2022/12/05 02:05:59;;;;;;;75.72;38.38;;;;;;;2.91;83.99;100639.00;2042619;87;30474;-68
2022/12/05 02:09:01;;;;;;;76.25;39.27;;;;;;;2.88;83.93;100638.14;2042459;86;33781;-69
2022/12/05 02:12:02;;;;;;;75.57;38.65;;;;;;;2.86;83.95;100634.63;2042528;86;29027;-68
2022/12/05 02:15:27;;;;;;;75.67;39.70;;;;;;;2.86;84.04;100636.41;2042531;86;27632;-68
2022/12/05 02:18:46;;;;;;;53.23;27.82;;;;;;;2.83;84.13;100630.70;1949426;91;28706;-67
2022/12/05 02:22:13;;;;;;;68.30;37.70;;;;;;;2.80;84.03;100625.89;1947882;91;31236;-71
2022/12/05 02:25:46;;;;;;;70.50;37.95;;;;;;;2.80;84.12;100621.92;2001291;88;33401;-67
2022/12/05 02:29:04;;;;;;;72.10;37.28;;;;;;;2.79;84.10;100617.53;2002032;88;29410;-64
2022/12/05 02:32:29;;;;;;;72.95;39.18;;;;;;;2.80;84.17;100619.28;2002086;88;27804;-65
2022/12/05 02:35:51;;;;;;;51.73;29.92;;;;;;;2.79;84.10;100622.82;2001364;88;28759;-66
2022/12/05 02:39:36;;;;;;;69.27;38.65;;;;;;;2.77;84.04;100620.64;2002154;88;31687;-67
2022/12/05 02:43:01;;;;;;;74.97;39.05;;;;;;;2.77;84.17;100620.64;2001241;88;33170;-66
2022/12/05 02:46:10;;;;;;;74.32;39.27;;;;;;;2.75;84.13;100614.05;2001795;88;29852;-66
2022/12/05 02:49:17;;;;;;;72.45;39.05;;;;;;;2.75;84.09;100621.98;2001807;88;27777;-67
2022/12/05 02:52:19;;;;;;;77.92;40.80;;;;;;;2.78;84.14;100618.42;2001878;88;29477;-66
2022/12/05 02:55:22;;;;;;;75.12;39.13;;;;;;;2.79;84.07;100621.06;2022443;87;31093;-66
2022/12/05 02:58:37;;;;;;;71.85;38.08;;;;;;;2.80;84.00;100624.58;2035312;87;32397;-64
2022/12/05 03:01:38;;;;;;;79.65;40.60;;;;;;;2.78;83.94;100621.06;2035308;87;29077;-66
2022/12/05 03:04:40;;;;;;;73.50;40.10;;;;;;;2.77;83.97;100617.56;2035308;87;27939;-67
2022/12/05 03:07:44;;;;;;;68.10;38.30;;;;;;;2.78;83.95;100615.34;2035738;87;28939;-66
2022/12/05 03:10:47;;;;;;;72.63;38.77;;;;;;;2.77;83.90;100608.73;2018330;87;31937;-68
2022/12/05 03:13:53;;;;;;;75.62;38.53;;;;;;;2.78;83.97;100611.80;2041171;86;33043;-67
2022/12/05 03:16:59;;;;;;;70.57;38.58;;;;;;;2.81;84.02;100613.09;2035184;87;29969;-66
2022/12/05 03:20:17;;;;;;;80.50;40.00;;;;;;;2.82;83.97;100612.20;2035306;87;27712;-68
2022/12/05 03:23:35;;;;;;;72.08;39.00;;;;;;;2.83;83.89;100614.81;2014349;87;28802;-68
2022/12/05 03:27:12;;;;;;;65.37;36.98;;;;;;;2.83;83.84;100608.66;2035484;87;31672;-66
2022/12/05 03:30:17;;;;;;;73.02;39.33;;;;;;;2.82;83.79;100610.42;2035050;87;33382;-66
2022/12/05 03:33:25;;;;;;;;;;;;;;;2.80;83.76;100604.30;2037949;87;29807;-67
2022/12/05 03:36:32;;;;;;;71.28;36.88;;;;;;;2.80;83.79;100608.27;2036905;87;27695;-68
2022/12/05 03:39:35;;;;;;;73.83;37.98;;;;;;;2.76;83.75;100603.01;2035513;87;29405;-66
2022/12/05 03:42:41;;;;;;;65.80;35.10;;;;;;;2.73;83.77;100607.44;2016137;87;30572;-67
2022/12/05 03:46:06;;;;;;;67.30;36.73;;;;;;;2.72;83.79;100604.39;2036845;87;32968;-66
2022/12/05 03:49:49;;;;;;;64.00;34.45;;;;;;;2.72;83.75;100600.43;2037069;87;29025;-66
2022/12/05 03:53:11;;;;;;;67.42;35.20;;;;;;;2.71;83.75;100601.32;2038227;87;27637;-66
2022/12/05 03:56:33;;;;;;;67.03;35.30;;;;;;;2.71;83.83;100592.49;2036677;87;28645;-66
2022/12/05 03:59:39;;;;;;;68.90;35.30;;;;;;;2.70;83.73;100596.03;2037274;87;31630;-67
2022/12/05 04:02:54;;;;;;;66.55;33.85;;;;;;;2.69;83.72;100595.17;2036506;87;32995;-65
2022/12/05 04:05:58;;;;;;;;;;;;;;;2.69;83.73;100587.66;2039512;87;29428;-68
2022/12/05 04:09:23;;;;;;;63.00;34.20;;;;;;;2.70;83.73;100586.34;2036930;87;27632;-68
2022/12/05 04:12:27;;;;;;;59.90;37.97;;;;;;;2.68;83.68;100572.25;2048271;86;28650;-66
2022/12/05 04:17:02;;;;;;;63.38;35.20;;;;;;;2.67;83.64;100576.22;2036927;87;31082;-68
2022/12/05 04:18:38;;;;;;;56.65;31.55;;;;;;;2.64;83.68;100571.86;2033469;87;34044;-67
2022/12/05 04:21:44;;;;;;;58.65;33.05;;;;;;;2.64;83.65;100577.61;2036873;87;29027;-67
2022/12/05 04:28:34;;;;;;;58.83;32.20;;;;;;;2.60;83.64;100578.07;2036788;87;28659;-67
2022/12/05 04:31:43;;;;;;;60.05;32.80;;;;;;;2.60;83.64;100586.00;2036852;87;31879;-67
2022/12/05 04:34:49;;;;;;;58.13;31.65;;;;;;;2.60;83.64;100582.04;2036547;87;33763;-67
2022/12/05 04:37:55;;;;;;;55.98;31.82;;;;;;;2.63;83.68;100590.41;2036767;87;29850;-66
2022/12/05 04:41:00;;;;;;;64.47;33.98;;;;;;;2.63;83.63;100584.66;2036971;87;27625;-67
2022/12/05 04:44:09;;;;;;;61.08;32.78;;;;;;;2.65;83.61;100578.91;2037038;86;28676;-68
2022/12/05 04:47:13;;;;;;;59.95;33.23;;;;;;;2.66;83.56;100574.47;2036799;87;31082;-69
2022/12/05 04:50:15;;;;;;;59.97;33.63;;;;;;;2.68;83.50;100577.97;2016509;87;33027;-67
2022/12/05 04:53:17;;;;;;;61.60;33.45;;;;;;;2.66;83.44;100581.98;2036796;87;28607;-67
2022/12/05 04:56:21;;;;;;;59.65;34.25;;;;;;;2.67;83.57;100587.70;2036793;87;27726;-67
2022/12/05 04:59:22;;;;;;;56.65;30.92;;;;;;;2.74;83.62;100591.14;2036854;87;28651;-67
2022/12/05 05:02:38;;;;;;;56.58;32.30;;;;;;;2.75;83.40;100595.53;2036921;87;31036;-66
2022/12/05 05:05:40;;;;;;;64.12;33.65;;;;;;;2.73;83.34;100596.00;2036917;87;33020;-67
2022/12/05 05:08:54;;;;;;;61.02;33.15;;;;;;;2.75;83.33;100592.89;1994857;87;29098;-66
2022/12/05 05:11:55;;;;;;;63.92;34.50;;;;;;;2.73;83.25;100598.64;2042681;86;27737;-67
2022/12/05 05:14:56;;;;;;;66.25;34.83;;;;;;;2.72;83.21;100592.92;2070490;85;29517;-67
2022/12/05 05:17:58;;;;;;;68.45;34.67;;;;;;;2.71;83.25;100601.32;2032889;87;31008;-68
2022/12/05 05:20:59;;;;;;;62.88;34.88;;;;;;;2.73;83.21;100599.97;2032873;87;32389;-67
2022/12/05 05:24:04;;;;;;;64.15;35.88;;;;;;;2.73;83.17;100597.32;2032922;87;29778;-69
2022/12/05 05:27:07;;;;;;;67.10;35.60;;;;;;;2.74;83.24;100598.61;2032829;87;27680;-67
2022/12/05 05:30:09;;;;;;;63.50;34.95;;;;;;;2.73;83.07;100596.86;2032607;87;28982;-67
2022/12/05 05:33:10;;;;;;;64.58;35.40;;;;;;;2.73;83.08;100597.32;2033370;87;31280;-68
2022/12/05 05:36:13;;;;;;;71.57;36.70;;;;;;;2.72;83.08;100601.75;2041543;87;33813;-66
2022/12/05 05:39:15;;;;;;;60.65;33.35;;;;;;;2.74;83.17;100608.33;2042508;87;29918;-67
2022/12/05 05:42:16;;;;;;;66.22;35.83;;;;;;;2.77;83.07;100607.41;2040742;87;27676;-66
2022/12/05 05:45:18;;;;;;;69.35;37.03;;;;;;;2.76;83.03;100616.23;2042830;87;28817;-67
2022/12/05 05:48:19;;;;;;;63.90;34.15;;;;;;;2.79;83.18;100618.84;2042598;87;31801;-68
2022/12/05 05:51:22;;;;;;;63.60;33.92;;;;;;;2.83;83.18;100613.95;2043092;87;32928;-67
2022/12/05 05:54:23;;;;;;;66.37;35.28;;;;;;;2.85;83.10;100617.00;2017372;87;28998;-68
2022/12/05 05:57:24;;;;;;;63.05;33.73;;;;;;;2.87;82.98;100612.56;2009887;88;27907;-67
2022/12/05 06:00:25;;;;;;;65.70;34.50;;;;;;;2.88;82.83;100612.14;2009877;88;27877;-68
2022/12/05 06:03:27;;;;;;;57.55;32.40;;;;;;;2.87;82.87;100607.27;2010086;88;31097;-68
2022/12/05 06:06:28;;;;;;;62.53;33.05;;;;;;;2.88;82.75;100613.46;2009981;88;33736;-68
2022/12/05 06:09:29;;;;;;;58.95;31.33;;;;;;;2.86;82.72;100608.63;2010016;88;29044;-68
2022/12/05 06:12:30;;;;;;;62.73;35.23;;;;;;;2.83;82.65;100617.46;2025171;87;27753;-67
2022/12/05 06:15:32;;;;;;;67.20;34.67;;;;;;;2.82;82.67;100622.79;2042683;87;28629;-68
2022/12/05 06:18:33;;;;;;;66.00;34.60;;;;;;;2.82;82.70;100610.88;2042330;86;31231;-69
2022/12/05 06:21:34;;;;;;;68.57;34.80;;;;;;;2.84;82.78;100612.60;2042838;86;33579;-68
2022/12/05 06:24:36;;;;;;;62.90;34.43;;;;;;;2.88;82.79;100609.49;2042870;86;29006;-68
2022/12/05 06:27:37;;;;;;;65.22;34.92;;;;;;;2.91;82.71;100612.53;2042882;87;27718;-68
2022/12/05 06:30:38;;;;;;;61.55;32.05;;;;;;;2.92;82.70;100631.02;2042497;87;29642;-69
2022/12/05 06:33:39;;;;;;;56.25;33.00;;;;;;;2.91;82.57;100623.98;2042626;87;31884;-68
2022/12/05 06:36:41;;;;;;;64.10;34.30;;;;;;;2.92;82.57;100614.29;2033148;86;33568;-68
2022/12/05 06:39:42;;;;;;;60.33;33.25;;;;;;;2.93;82.57;100606.31;2033332;87;29065;-68
2022/12/05 06:42:43;;;;;;;59.60;34.05;;;;;;;2.94;82.40;100608.53;2033026;87;27825;-67
2022/12/05 06:45:45;;;;;;;58.20;31.75;;;;;;;2.93;82.45;100614.72;2033184;87;29545;-68
2022/12/05 06:48:46;;;;;;;64.22;34.30;;;;;;;2.94;82.43;100609.86;2033305;87;31095;-68
2022/12/05 06:51:48;;;;;;;60.23;32.10;;;;;;;2.92;82.38;100616.47;2012836;88;32966;-67
2022/12/05 06:54:49;;;;;;;61.25;33.00;;;;;;;2.91;82.27;100613.39;2012766;88;29049;-69
2022/12/05 06:57:51;;;;;;;62.83;33.65;;;;;;;2.90;82.41;100610.31;2012809;87;27727;-67
2022/12/05 07:04:23;;;;;;;61.35;33.42;;;;;;;2.93;82.28;100614.72;2012583;87;31139;-68
2022/12/05 07:07:24;;;;;;;58.28;32.50;;;;;;;2.91;82.26;100613.86;2070824;86;32976;-68
2022/12/05 07:10:26;;;;;;;58.65;32.93;;;;;;;2.90;82.35;100606.35;2070648;85;29045;-68
2022/12/05 07:13:27;;;;;;;53.40;31.82;;;;;;;2.91;82.36;100604.13;2005226;87;27748;-68
2022/12/05 07:16:29;;;;;;;57.83;31.33;;;;;;;2.92;82.28;100607.67;2000651;89;29461;-64
2022/12/05 07:19:30;;;;;;;60.58;32.28;;;;;;;2.89;82.26;100599.34;2000212;88;31032;-67
2022/12/05 07:22:35;;;;;;;56.30;31.70;;;;;;;2.89;82.31;100602.84;2000556;89;32966;-69
2022/12/05 07:25:41;;;;;;;55.67;35.55;;;;;;;2.92;82.30;100595.77;1980800;89;28996;-67
2022/12/05 07:28:42;;;;;;;58.90;33.35;;;;;;;2.90;82.21;100606.35;1980864;89;27687;-67
2022/12/05 07:31:43;;;;;;;55.33;32.25;;;;;;;2.90;82.28;100602.38;1980862;89;28638;-67
2022/12/05 07:34:45;;;;;;;55.03;33.08;;;;;;;2.94;82.37;100609.86;2036798;87;31012;-68
2022/12/05 07:37:46;;;;;;;52.03;30.85;;;;;;;2.97;82.32;100605.39;2036910;87;33080;-68
2022/12/05 07:40:47;;;;;;;53.70;29.42;;;;;;;2.98;82.20;100615.55;2037166;87;29616;-67
2022/12/05 07:43:51;;;;;;;54.20;31.77;;;;;;;2.96;82.02;100615.55;2037221;86;27779;-66
2022/12/05 07:46:52;;;;;;;39.80;24.17;;;;;;;2.95;82.15;100615.58;2037236;87;28703;-70
2022/12/05 07:49:54;;;;;;;54.95;31.48;;;;;;;2.97;82.18;100619.08;2036968;87;31097;-65
2022/12/05 07:52:55;;;;;;;55.50;32.00;;;;;;;2.98;82.18;100624.81;2036817;87;32951;-67
2022/12/05 07:56:01;;;;;;;62.35;34.25;;;;;;;2.98;82.17;100625.67;2036980;87;29109;-68
2022/12/05 07:59:02;;;;;;;50.28;30.72;;;;;;;3.01;82.23;100626.06;2036930;87;27685;-66
2022/12/05 08:02:04;;;;;;;59.23;30.92;;;;;;;3.06;82.25;100634.83;2036878;87;29808;-66
2022/12/05 08:05:06;;;;;;;58.90;30.65;;;;;;;3.05;82.13;100627.78;2036847;87;31820;-67
2022/12/05 08:08:07;;;;;;;54.18;29.98;;;;;;;3.08;82.00;100632.14;2036915;87;33115;-67
2022/12/05 08:11:16;;;;;;;59.45;34.78;;;;;;;3.10;82.05;100636.98;2042824;86;29945;-68
2022/12/05 08:14:17;;;;;;;51.45;30.17;;;;;;;3.10;81.97;100633.90;2070803;86;27714;-69
2022/12/05 08:17:18;;;;;;;51.35;29.72;;;;;;;3.13;81.98;100630.33;2070391;86;28700;-67
2022/12/05 08:20:19;;;;;;;55.12;30.32;;;;;;;3.14;81.98;100638.27;2066241;86;31055;-69
2022/12/05 08:23:20;;;;;;;52.20;31.00;;;;;;;3.17;81.91;100630.72;2036778;87;33756;-69
2022/12/05 08:26:25;;;;;;;57.53;31.42;;;;;;;3.21;81.97;100637.73;2036837;87;29040;-68
2022/12/05 08:29:26;;;;;;;48.78;29.18;;;;;;;3.27;82.03;100636.77;2037305;87;27628;-67
2022/12/05 08:32:27;;;;;;;48.68;29.50;;;;;;;3.31;81.93;100647.28;2036936;87;28635;-67
2022/12/05 08:35:29;;;;;;;54.30;31.07;;;;;;;3.33;81.84;100649.89;2036796;87;31005;-68
2022/12/05 08:38:31;;;;;;;52.20;30.60;;;;;;;3.36;81.89;100643.23;2036899;87;33019;-67
2022/12/05 08:41:33;;;;;;;52.73;30.75;;;;;;;3.39;81.77;100650.28;2036980;86;29873;-66
2022/12/05 08:44:34;;;;;;;54.50;32.05;;;;;;;3.43;81.78;100645.34;2036928;87;27700;-65
2022/12/05 08:47:35;;;;;;;63.80;33.38;;;;;;;3.47;81.89;100651.92;2036969;87;28638;-67
2022/12/05 08:50:38;;;;;;;56.02;32.28;;;;;;;3.52;81.79;100648.31;2036806;87;31995;-66
2022/12/05 08:53:40;;;;;;;56.50;32.85;;;;;;;3.54;81.65;100658.44;2036774;87;33921;-69
2022/12/05 08:56:44;;;;;;;55.88;31.68;;;;;;;3.56;81.64;100656.18;2036839;87;29895;-66
2022/12/05 08:59:46;;;;;;;53.75;31.30;;;;;;;3.57;81.51;100651.77;2036737;87;37152;-67
2022/12/05 09:02:50;;;;;;;55.98;32.90;;;;;;;3.56;81.39;100644.27;2036596;87;28620;-67
2022/12/05 09:05:52;;;;;;;55.35;28.95;;;;;;;3.57;81.41;100646.02;2036919;87;31055;-68
2022/12/05 09:08:59;;;;;;;53.15;32.25;;;;;;;3.57;81.31;100647.80;2036893;87;33742;-66
2022/12/05 09:12:01;;;;;;;48.80;29.50;;;;;;;3.58;81.51;100645.11;2051878;86;29041;-67
2022/12/05 09:15:05;;;;;;;51.28;29.82;;;;;;;3.60;81.46;100638.02;2070903;86;27689;-67
2022/12/05 09:18:06;;;;;;;53.90;29.80;;;;;;;3.60;81.39;100634.05;2070810;86;29574;-67
2022/12/05 09:21:12;;;;;;;50.30;31.27;;;;;;;3.58;81.26;100638.50;2070732;86;31409;-67
2022/12/05 09:24:14;;;;;;;53.85;30.75;;;;;;;3.55;81.11;100633.70;2070653;86;32985;-68
2022/12/05 09:27:15;;;;;;;53.75;32.17;;;;;;;3.54;81.42;100631.52;2070684;86;29023;-68
2022/12/05 09:30:17;;;;;;;48.42;28.65;;;;;;;3.60;81.58;100627.43;2070745;86;27716;-68
2022/12/05 09:33:18;;;;;;;50.55;31.40;;;;;;;3.63;81.35;100626.52;2070702;85;28687;-67
2022/12/05 09:36:23;;;;;;;53.50;31.82;;;;;;;3.61;81.29;100627.86;2065570;85;31014;-67
2022/12/05 09:39:25;;;;;;;52.05;29.23;;;;;;;3.59;81.34;100623.49;2060048;86;33865;-67
2022/12/05 09:42:35;;;;;;;47.33;28.35;;;;;;;3.63;81.50;100623.41;2059874;86;29020;-68
2022/12/05 09:45:41;;;;;;;49.88;28.80;;;;;;;3.69;81.42;100618.92;2060291;86;27736;-68
2022/12/05 09:48:43;;;;;;;49.10;28.17;;;;;;;3.73;81.37;100628.55;2034151;87;28686;-68
2022/12/05 09:51:46;;;;;;;53.23;31.12;;;;;;;3.72;81.21;100610.47;2009549;87;31951;-68
2022/12/05 09:54:48;;;;;;;50.88;29.87;;;;;;;3.73;81.07;100607.35;2034414;87;33849;-68
2022/12/05 09:57:56;;;;;;;54.05;32.90;;;;;;;3.73;81.24;100612.66;2034378;87;29864;-68
2022/12/05 10:01:44;;;;;;;48.83;28.73;;;;;;;3.79;81.33;100605.94;2034620;87;27635;-68
2022/12/05 10:05:00;;;;;;;54.45;32.20;;;;;;;3.85;81.19;100603.63;2034446;87;29549;-68
2022/12/05 10:08:25;;;;;;;52.65;30.25;;;;;;;3.85;81.35;100604.52;2013030;88;31844;-67
2022/12/05 10:11:35;;;;;;;48.90;29.32;;;;;;;3.90;81.30;100603.97;2034509;87;33013;-67
2022/12/05 10:15:07;;;;;;;58.42;32.95;;;;;;;3.93;81.23;100603.92;2013069;88;29388;-68
2022/12/05 10:18:19;;;;;;;57.33;31.15;;;;;;;4.01;81.35;100603.79;2034612;87;27535;-67
2022/12/05 10:22:00;;;;;;;56.08;32.20;;;;;;;4.08;81.32;100604.12;2008350;88;28705;-69
2022/12/05 10:25:04;;;;;;;53.70;30.17;;;;;;;4.10;81.14;100600.10;1950427;91;31081;-67
2022/12/05 10:28:15;;;;;;;52.10;31.55;;;;;;;4.10;80.88;100595.69;1970296;90;32969;-68
2022/12/05 10:31:21;;;;;;;52.85;32.50;;;;;;;4.12;80.81;100592.14;1938359;91;29037;-66
2022/12/05 10:34:38;;;;;;;50.23;29.95;;;;;;;4.09;80.92;100596.59;1970434;90;28228;-68
2022/12/05 10:37:49;;;;;;;48.87;30.27;;;;;;;4.10;80.85;100594.80;1937868;91;28828;-67
2022/12/05 10:40:57;;;;;;;48.68;30.30;;;;;;;4.12;80.93;100589.02;1970320;90;31247;-69
2022/12/05 10:43:58;;;;;;;55.50;30.23;;;;;;;4.15;80.96;100585.42;1950223;91;33067;-69
2022/12/05 10:47:00;;;;;;;56.48;33.33;;;;;;;4.18;80.73;100582.30;1970292;90;29844;-67
2022/12/05 10:50:22;;;;;;;55.88;32.20;;;;;;;4.20;80.77;100587.12;1938500;91;27743;-69
2022/12/05 10:53:40;;;;;;;59.98;35.03;;;;;;;4.27;80.95;100585.22;2021442;87;28668;-67
2022/12/05 10:56:48;;;;;;;64.05;33.02;;;;;;;4.31;80.71;100592.66;2011539;87;32197;-67
2022/12/05 10:59:49;;;;;;;60.23;34.45;;;;;;;4.33;80.61;100584.23;2034530;87;33776;-67
2022/12/05 11:02:51;;;;;;;58.38;32.93;;;;;;;4.33;80.72;100590.39;2034590;87;28481;-68
2022/12/05 11:05:55;;;;;;;51.95;30.37;;;;;;;4.35;80.40;100593.03;2034789;86;27692;-69
2022/12/05 11:09:20;;;;;;;51.40;31.60;;;;;;;4.35;80.43;100585.08;2034666;86;29349;-68
2022/12/05 11:12:25;;;;;;;37.50;23.57;;;;;;;4.37;80.36;100589.44;2012690;87;31658;-68
2022/12/05 11:15:30;;;;;;;55.30;31.80;;;;;;;4.40;80.54;100588.05;2034438;87;33798;-67
2022/12/05 11:18:33;;;;;;;42.95;25.85;;;;;;;4.45;80.40;100587.09;2034755;87;32784;-66
2022/12/05 11:21:43;;;;;;;58.10;32.40;;;;;;;4.43;80.36;100588.91;2025020;87;27674;-67
2022/12/05 11:24:44;;;;;;;52.58;31.02;;;;;;;4.44;80.30;100586.20;1981245;89;28678;-67
2022/12/05 11:27:46;;;;;;;56.88;33.15;;;;;;;4.43;80.09;100579.16;2026953;87;31031;-67
2022/12/05 11:31:07;;;;;;;56.42;32.48;;;;;;;4.48;80.28;100584.36;2026854;87;32951;-66
2022/12/05 11:34:14;;;;;;;60.70;32.85;;;;;;;4.51;80.42;100579.89;2025700;87;29023;-66
2022/12/05 11:37:26;;;;;;;57.65;32.60;;;;;;;4.57;80.25;100580.21;2032124;87;27661;-67
2022/12/05 11:40:45;;;;;;;59.85;32.60;;;;;;;4.60;80.00;100571.30;2036994;87;29583;-67
2022/12/05 11:43:57;;;;;;;59.98;31.37;;;;;;;4.62;80.12;100572.16;2037281;87;31024;-67
2022/12/05 11:47:37;;;;;;;62.83;32.53;;;;;;;4.68;80.08;100566.73;2036692;87;32972;-66
2022/12/05 11:51:10;;;;;;;61.08;33.38;;;;;;;4.67;79.87;100568.95;2036991;87;29026;-67
2022/12/05 11:54:47;;;;;;;58.50;34.40;;;;;;;4.71;79.85;100570.66;2037257;87;27701;-66
2022/12/05 11:58:15;;;;;;;66.12;34.63;;;;;;;4.77;79.93;100569.64;2037155;87;28664;-67
2022/12/05 12:01:40;;;;;;;65.65;35.98;;;;;;;4.83;80.01;100568.16;2036650;87;31015;-68
2022/12/05 12:04:58;;;;;;;65.32;34.58;;;;;;;4.91;80.01;100564.02;2036659;87;32971;-67
2022/12/05 12:08:13;;;;;;;56.63;34.20;;;;;;;4.97;79.99;100556.78;2037051;87;29056;-67
2022/12/05 12:11:29;;;;;;;61.20;34.95;;;;;;;5.05;79.98;100556.61;2036828;87;27696;-66
2022/12/05 12:15:02;;;;;;;63.60;36.60;;;;;;;5.10;79.75;100556.53;2036991;87;28657;-66
2022/12/05 12:18:45;;;;;;;60.00;34.98;;;;;;;5.10;79.48;100557.39;2037134;87;31836;-67
2022/12/05 12:22:10;;;;;;;68.97;38.90;;;;;;;5.10;79.30;100552.08;2048334;86;33121;-67
2022/12/05 12:25:26;;;;;;;68.20;36.42;;;;;;;5.07;79.12;100550.81;2032285;87;29028;-65
2022/12/05 12:28:47;;;;;;;66.80;37.00;;;;;;;5.06;79.24;100554.38;2033319;87;27689;-66
2022/12/05 12:32:03;;;;;;;67.22;37.40;;;;;;;5.06;79.23;100550.39;2012404;88;28761;-65
2022/12/05 12:35:30;;;;;;;67.45;37.05;;;;;;;5.09;79.37;100548.14;2012469;87;32030;-65
2022/12/05 12:39:07;;;;;;;71.47;38.70;;;;;;;5.09;79.28;100541.03;2013765;88;33917;-66
2022/12/05 12:42:26;;;;;;;65.30;36.05;;;;;;;5.10;79.11;100545.44;2009260;88;29890;-65
2022/12/05 12:46:10;;;;;;;70.67;40.40;;;;;;;5.09;79.10;100541.03;2009298;88;27778;-66
2022/12/05 12:49:34;;;;;;;70.30;39.30;;;;;;;5.10;79.17;100542.78;2009399;88;29494;-65
2022/12/05 12:53:19;;;;;;;71.95;40.03;;;;;;;5.11;79.24;100546.33;2007579;88;31024;-67
2022/12/05 12:56:44;;;;;;;64.45;37.98;;;;;;;5.13;79.14;100554.67;1977524;90;32967;-65
2022/12/05 13:00:11;;;;;;;71.00;40.25;;;;;;;5.12;79.06;100553.39;1977520;90;29792;-67
2022/12/05 13:03:35;;;;;;;70.03;36.90;;;;;;;5.12;79.17;100548.08;1977895;90;27766;-66
2022/12/05 13:06:54;;;;;;;68.22;39.98;;;;;;;5.13;79.08;100544.05;1977694;90;28740;-67
2022/12/05 13:10:13;;;;;;;77.40;42.05;;;;;;;5.14;79.14;100546.23;1977707;90;31864;-68
2022/12/05 13:13:23;;;;;;;71.85;41.05;;;;;;;5.16;79.08;100555.94;1977621;90;33334;-66
2022/12/05 13:16:39;;;;;;;74.05;42.62;;;;;;;5.16;79.03;100559.02;1977610;90;29018;-69
2022/12/05 13:19:45;;;;;;;87.92;44.88;;;;;;;5.17;78.97;100554.14;1982140;89;27689;-67
2022/12/05 13:22:49;;;;;;;73.00;41.48;;;;;;;5.15;78.91;100552.86;2004650;88;28699;-68
2022/12/05 13:25:53;;;;;;;79.60;43.40;;;;;;;5.13;78.84;100557.33;2014672;87;31051;-68
2022/12/05 13:28:58;;;;;;;77.12;43.23;;;;;;;5.09;78.89;100559.63;2014526;87;33763;-67
2022/12/05 13:32:02;;;;;;;67.80;40.40;;;;;;;5.09;79.00;100560.09;2014379;88;43593;-67
2022/12/05 13:42:16;;;;;;;75.60;40.65;;;;;;;5.09;79.06;100563.61;2027988;87;31925;-67
2022/12/05 13:45:19;;;;;;;70.57;40.25;;;;;;;5.09;79.06;100560.95;2028136;87;33001;-67
2022/12/05 13:48:25;;;;;;;77.55;42.78;;;;;;;5.07;78.96;100564.56;2028176;87;29081;-66
2022/12/05 13:51:33;;;;;;;76.67;44.08;;;;;;;5.05;79.03;100567.23;2028047;87;27717;-67
2022/12/05 13:54:43;;;;;;;82.50;44.00;;;;;;;5.05;79.05;100559.73;2027777;87;28665;-67
2022/12/05 13:57:48;;;;;;;75.28;42.48;;;;;;;5.03;79.00;100561.11;2026172;87;30740;-68
2022/12/05 14:00:50;;;;;;;;;;;;;;;5.04;79.13;100555.33;2030669;87;33117;-66
2022/12/05 14:03:58;;;;;;;81.72;44.85;;;;;;;5.01;78.89;100562.45;2060317;86;29024;-67
2022/12/05 14:06:59;;;;;;;83.30;46.15;;;;;;;4.95;79.06;100563.94;2060378;86;27610;-67
2022/12/05 14:10:01;;;;;;;83.75;46.05;;;;;;;4.98;79.14;100561.66;2060145;86;28741;-67
2022/12/05 14:13:14;;;;;;;86.32;46.58;;;;;;;5.00;79.21;100558.05;2060290;86;31024;-68
2022/12/05 14:16:34;;;;;;;89.55;48.08;;;;;;;5.01;79.20;100559.80;2050606;86;33914;-67
2022/12/05 14:19:44;;;;;;;80.00;45.10;;;;;;;5.06;79.24;100562.81;2034320;87;29029;-68
2022/12/05 14:23:12;;;;;;;85.42;46.65;;;;;;;5.04;79.11;100558.87;2007929;87;27670;-67
2022/12/05 14:26:36;;;;;;;77.27;44.80;;;;;;;5.05;79.11;100553.09;1978809;89;28671;-66
2022/12/05 14:30:20;;;;;;;87.95;46.37;;;;;;;5.05;79.08;100546.45;1978683;89;31899;-66
2022/12/05 14:33:22;;;;;;;83.62;44.35;;;;;;;5.02;79.12;100543.43;1978976;89;33432;-65
2022/12/05 14:36:29;;;;;;;83.47;46.33;;;;;;;4.98;79.01;100541.27;1979003;89;29752;-65
2022/12/05 14:39:34;;;;;;;79.77;43.87;;;;;;;4.96;79.06;100544.88;1963024;89;27857;-67